Avon, Indiana
Current Conditions -  °F | °C
As of 12:53 PM on Saturday 20 Dec 2014 (Local Time) from KEYE Reporting Station
Overcast Overcast  
Wind Chill: 32°   Ceiling: 3400
Heat Index: 32°   Visibility: 10mi
Dew Point: 22°   Wind: 0mph
Humidity: 66%   Direction: NA
Pressure: 30.27"   Gusts: NA
Location:  39.76°N, 86.4°W
Report Text: KEYE 201753Z AUTO 00000KT 10SM SCT029 BKN034 OVC065 00/M06 A3027 RMK AO2 SLP259 T00001056 10000 21017 58004
Loading
Personal Weather Stations






























Interactive Weather Map New forecast layout! Learn more

10-Day Weather Forecast

Advertisements
Track Severe Weather on mobile